MDT,Max TemperatureF,Mean TemperatureF,Min TemperatureF,Max Dew PointF,MeanDew PointF,Min DewpointF,Max Humidity, Mean Humidity, Min Humidity, Max Sea Level PressureIn, Mean Sea Level PressureIn, Min Sea Level PressureIn, Max VisibilityMiles, Mean VisibilityMiles, Min VisibilityMiles, Max Wind SpeedMPH, Mean Wind SpeedMPH, Max Gust SpeedMPH,PrecipitationIn, CloudCover, Events, WindDirDegrees
2012-9-1,98,78,61,38,35,30,35,21,12,30.18,29.94,29.85,10,10,10,18,6,24,0.00,0,,190
2012-9-2,100,84,70,54,46,40,47,28,14,30.08,29.84,29.76,10,10,10,23,9,29,0.00,0,,207
2012-9-3,100,86,73,57,50,44,53,32,16,29.88,29.82,29.75,10,10,10,10,7,17,0.00,0,,199
2012-9-4,99,84,69,54,51,46,53,33,16,30.02,29.84,29.73,10,10,10,21,7,30,0.00,0,,318
2012-9-5,98,80,64,61,50,41,66,38,15,29.87,29.80,29.77,10,10,10,26,8,31,0.00,0,,25
2012-9-6,100,83,66,62,56,45,70,48,15,30.11,29.87,29.70,10,10,8,22,7,25,0.01,2,Rain-Thunderstorm,290
2012-9-7,84,75,64,62,51,42,71,48,26,30.15,29.93,29.76,10,10,10,28,13,38,0.00,1,Rain,38
2012-9-8,77,69,61,55,48,41,81,54,29,30.29,30.20,30.12,10,10,10,10,4,,0.04,3,Rain,227
2012-9-9,86,68,51,47,39,28,74,39,12,30.21,30.11,30.02,10,10,10,10,5,,0.00,0,,216
2012-9-10,91,74,57,49,46,42,59,36,21,30.04,29.92,29.80,10,10,10,20,11,28,0.00,0,,211
2012-9-11,98,84,71,45,41,37,33,24,12,29.83,29.77,29.68,10,10,10,24,19,33,0.00,0,,217
2012-9-12,89,70,55,52,46,40,88,43,22,30.30,29.91,29.76,10,10,7,30,12,39,0.02,3,Rain,34
2012-9-13,66,60,55,54,50,44,94,76,50,30.42,30.30,30.14,10,9,5,23,16,32,0.23,6,Rain,47
2012-9-14,73,61,50,48,37,23,89,49,18,30.41,30.31,30.24,10,10,7,17,7,24,0.00,2,,52
2012-9-15,80,62,45,39,33,25,74,41,14,30.26,30.14,30.03,10,10,6,9,5,,0.00,0,,237
2012-9-16,89,68,48,37,32,21,64,32,9,30.02,29.93,29.84,10,10,10,8,5,,0.00,0,,193
2012-9-17,81,66,53,48,38,33,64,36,20,30.06,29.91,29.80,10,10,10,23,9,34,0.00,0,,14
2012-9-18,82,65,48,47,40,33,77,45,17,30.18,30.06,29.96,10,10,10,14,8,20,0.00,0,,223
2012-9-19,93,73,53,44,33,22,61,27,8,30.01,29.91,29.82,10,10,10,15,7,,0.00,0,,249
2012-9-20,91,72,55,44,34,27,51,27,10,30.10,29.88,29.79,10,10,10,12,8,,0.00,0,,1
2012-9-21,91,74,59,45,41,35,55,34,15,29.95,29.91,29.86,10,10,10,18,8,24,0.00,0,,46
2012-9-22,93,74,54,45,35,24,55,29,8,30.20,30.00,29.91,10,10,10,12,5,,0.00,0,,130
2012-9-23,96,82,69,31,27,23,23,15,8,30.22,29.98,29.90,10,10,10,24,13,31,0.00,0,,218
2012-9-24,91,78,66,50,37,30,54,27,12,29.98,29.86,29.73,10,10,10,20,13,28,0.00,0,,224
2012-9-25,91,74,57,40,35,28,47,26,11,29.93,29.76,29.67,10,10,10,26,11,33,0.00,1,,277
2012-9-26,84,70,57,55,47,40,65,42,24,30.09,29.88,29.77,10,10,10,20,7,16,0.00,2,Rain-Thunderstorm,88
2012-9-27,79,68,59,58,56,49,90,70,43,30.22,30.05,29.92,10,9,2,16,6,26,0.23,4,Rain-Thunderstorm,129
2012-9-28,75,66,60,59,57,51,90,75,52,30.21,30.08,29.96,10,10,5,15,6,,0.00,6,Rain-Thunderstorm,109
2012-9-29,78,67,57,59,55,52,90,72,42,30.18,30.05,29.94,10,10,6,18,7,29,0.05,4,Rain-Thunderstorm,6
2012-9-30,82,68,53,57,51,41,93,65,25,30.08,29.96,29.84,10,9,5,21,6,,0.02,2,Rain-Thunderstorm,286